Latest Coastal Weather Observations for Geelong Racecourse

IDV60701

Issued at 3:05 pm EST Saturday 26 July 2014 (issued every 10 minutes, with the page automatically refreshed every 10 minutes)

About coastal observations | Map of coastal stations | Coastal observations for VIC | Marine services | Other Formats
Station Details ID: 087184 Name: GEELONG RACECOURSE Lat: -38.17 Lon: 144.38 Height: 12.9 m
Data from the previous 72 hours. | See also: Recent months at Geelong Racecourse
Date/Time
EST
Temp

°C
Wind Pressure Rain
since 9am
mm
Weather Cloud Vis
km
Sea
Height
m
Swell
Dir
 
Speed
knots
Gust
knots
hPa Trend Height
m
Period
s
Dir
26/03:00pm 12.8 W 11 14 1022.8 - 0.0 - - - - - - -
26/02:30pm 13.1 W 10 17 1022.4 - 0.0 - - - - - - -
26/02:00pm 13.7 W 10 16 1022.1 - 0.0 - - - - - - -
26/01:30pm 13.9 W 10 16 1022.1 - 0.0 - - - - - - -
26/01:00pm 13.0 W 10 16 1022.3 - 0.0 - - - - - - -
26/12:30pm 13.1 WNW 12 16 1022.4 - 0.0 - - - - - - -
26/12:00pm 13.0 WNW 9 14 1022.6 - 0.0 - - - - - - -
26/11:30am 13.1 W 10 17 1023.0 - 0.0 - - - - - - -
26/11:00am 12.7 WNW 10 16 1023.0 - 0.0 - - - - - - -
26/10:30am 11.7 WNW 9 13 1023.0 - 0.0 - - - - - - -
26/10:00am 11.7 WNW 8 14 1022.9 - 0.0 - - - - - - -
26/09:30am 11.9 WNW 10 16 1022.8 - 0.0 - - - - - - -
26/09:00am 11.8 WNW 9 14 1022.5 - 0.0 - - - - - - -
26/08:30am 11.9 WNW 8 15 1022.1 - 0.0 - - - - - - -
26/08:00am 11.7 WNW 11 18 1021.5 - 0.0 - - - - - - -
26/07:30am 11.7 WNW 10 15 1021.3 - 0.0 - - - - - - -
26/07:00am 11.8 WNW 9 16 1021.1 - 0.0 - - - - - - -
26/06:30am 11.8 WNW 9 17 1020.7 - 0.0 - - - - - - -
26/06:00am 11.9 WNW 10 16 1020.3 - 0.0 - - - - - - -
26/05:30am 11.8 WNW 9 17 1020.1 - 0.0 - - - - - - -
26/05:00am 11.8 WNW 8 13 1019.9 - 0.0 - - - - - - -
26/04:30am 12.0 NW 10 13 1019.6 - 0.0 - - - - - - -
26/04:00am 12.2 WNW 11 15 1019.5 - 0.0 - - - - - - -
26/03:30am 12.1 NW 9 16 1019.4 - 0.0 - - - - - - -
26/03:00am 12.2 NW 8 12 1019.3 - 0.0 - - - - - - -
26/02:30am 11.8 NW 9 12 1019.3 - 0.0 - - - - - - -
26/02:00am 11.5 NW 6 9 1019.3 - 0.0 - - - - - - -
26/01:30am 11.1 NW 6 9 1019.2 - 0.0 - - - - - - -
26/01:00am 11.0 NNW 7 10 1019.2 - 0.0 - - - - - - -
26/12:30am 10.9 NNW 6 9 1019.2 - 0.0 - - - - - - -
26/12:00am 10.4 NNW 5 7 1019.2 - 0.0 - - - - - - -
 
Date/Time
EST
Temp

°C
Wind Pressure Rain
since 9am
mm
Weather Cloud Vis
km
Sea
Height
m
Swell
Dir
 
Speed
knots
Gust
knots
hPa Trend Height
m
Period
s
Dir
25/11:30pm 10.5 NNW 4 6 1019.0 - 0.0 - - - - - - -
25/11:00pm 10.9 N 5 8 1019.0 - 0.0 - - - - - - -
25/10:30pm 11.2 N 4 6 1019.0 - 0.0 - - - - - - -
25/10:00pm 11.2 NNE 4 5 1018.9 - 0.0 - - - - - - -
25/09:30pm 10.7 N 2 3 1018.7 - 0.0 - - - - - - -
25/09:00pm 10.8 N 1 2 1018.5 - 0.0 - - - - - - -
25/08:30pm 11.5 NNW 2 3 1018.2 - 0.0 - - - - - - -
25/08:00pm 11.6 NNW 4 5 1018.0 - 0.0 - - - - - - -
25/07:30pm 12.1 NW 4 6 1017.7 - 0.0 - - - - - - -
25/07:00pm 12.8 NNW 5 7 1017.3 - 0.0 - - - - - - -
25/06:30pm 13.2 NNW 5 8 1017.0 - 0.0 - - - - - - -
25/06:00pm 13.8 NW 6 9 1016.6 - 0.0 - - - - - - -
25/05:30pm 14.2 NNW 8 11 1016.3 - 0.0 - - - - - - -
25/05:00pm 14.1 NNW 7 11 1015.9 - 0.0 - - - - - - -
25/04:30pm 14.5 NNW 10 14 1015.5 - 0.0 - - - - - - -
25/04:00pm 15.6 NW 11 18 1015.2 - 0.0 - - - - - - -
25/03:30pm 15.2 NNW 10 14 1015.0 - 0.0 - - - - - - -
25/03:00pm 15.1 NNW 9 16 1014.9 - 0.0 - - - - - - -
25/02:30pm 15.0 NNW 13 17 1014.7 - 0.0 - - - - - - -
25/02:00pm 15.2 NNW 12 17 1014.5 - 0.0 - - - - - - -
25/01:30pm 14.9 NNW 8 14 1014.6 - 0.0 - - - - - - -
25/01:00pm 14.8 NNW 10 15 1014.7 - 0.0 - - - - - - -
25/12:30pm 14.6 NNW 8 12 1014.9 - 0.0 - - - - - - -
25/12:00pm 14.3 NNW 9 14 1015.2 - 0.0 - - - - - - -
25/11:30am 14.1 NNW 10 14 1015.5 - 0.0 - - - - - - -
25/11:00am 14.2 N 7 13 1015.4 - 0.0 - - - - - - -
25/10:30am 13.0 N 3 5 1015.4 - 0.0 - - - - - - -
25/10:00am 11.9 N 3 6 1015.2 - 0.0 - - - - - - -
25/09:30am 11.1 NNE 4 6 1015.0 - 0.0 - - - - - - -
25/09:00am 10.2 NNE 4 6 1014.9 - 0.8 - - - - - - -
25/08:30am 10.0 NNE 5 7 1014.8 - 0.8 - - - - - - -
25/08:00am 10.0 NNE 4 5 1014.5 - 0.8 - - - - - - -
25/07:30am 9.6 NE 4 5 1014.1 - 0.8 - - - - - - -
25/07:00am 9.5 NE 4 6 1013.9 - 0.8 - - - - - - -
25/06:30am 9.7 NNE 6 9 1013.5 - 0.8 - - - - - - -
25/06:00am 9.9 NE 5 8 1013.2 - 0.8 - - - - - - -
25/05:30am 9.8 NE 6 8 1012.9 - 0.8 - - - - - - -
25/05:00am 9.9 NNE 4 6 1012.9 - 0.8 - - - - - - -
25/04:30am 9.8 NNE 5 7 1012.8 - 0.8 - - - - - - -
25/04:00am 9.8 NNE 5 8 1012.7 - 0.8 - - - - - - -
25/03:30am 10.0 NE 5 7 1012.8 - 0.8 - - - - - - -
25/03:00am 9.8 NNE 6 9 1012.7 - 0.8 - - - - - - -
25/02:30am 9.9 NNE 5 7 1012.6 - 0.8 - - - - - - -
25/02:00am 10.2 NNE 6 9 1012.5 - 0.8 - - - - - - -
25/01:30am 10.2 NE 5 7 1012.4 - 0.8 - - - - - - -
25/01:00am 10.7 NE 6 8 1012.3 - 0.8 - - - - - - -
25/12:30am 10.8 NE 7 9 1012.5 - 0.8 - - - - - - -
25/12:00am 10.9 NE 7 11 1012.6 - 0.8 - - - - - - -
 
Date/Time
EST
Temp

°C
Wind Pressure Rain
since 9am
mm
Weather Cloud Vis
km
Sea
Height
m
Swell
Dir
 
Speed
knots
Gust
knots
hPa Trend Height
m
Period
s
Dir
24/11:30pm 11.7 NE 6 9 1013.0 - 0.8 - - - - - - -
24/11:00pm 11.9 NE 8 13 1013.0 - 0.8 - - - - - - -
24/10:30pm 11.9 NE 8 11 1012.9 - 0.8 - - - - - - -
24/10:00pm 11.8 ENE 7 9 1013.0 - 0.8 - - - - - - -
24/09:30pm 11.3 ENE 7 11 1013.0 - 0.8 - - - - - - -
24/09:00pm 10.9 NE 7 11 1013.0 - 0.8 - - - - - - -
24/08:30pm 11.1 ENE 7 13 1013.1 - 0.8 - - - - - - -
24/08:00pm 11.1 NE 5 9 1013.1 - 0.8 - - - - - - -
24/07:30pm 11.1 NE 6 10 1013.0 - 0.8 - - - - - - -
24/07:00pm 11.2 NE 5 8 1013.0 - 0.8 - - - - - - -
24/06:30pm 11.4 ENE 6 10 1012.9 - 0.8 - - - - - - -
24/06:00pm 11.2 ENE 3 8 1012.8 - 0.8 - - - - - - -
24/05:30pm 11.4 E 4 6 1012.6 - 0.8 - - - - - - -
24/05:00pm 11.9 E 4 6 1012.6 - 0.8 - - - - - - -
24/04:30pm 11.8 E 5 10 1012.7 - 0.8 - - - - - - -
24/04:00pm 12.1 ENE 7 10 1012.7 - 0.8 - - - - - - -
24/03:30pm 12.3 ENE 7 12 1012.5 - 0.8 - - - - - - -
24/03:00pm 12.7 ENE 8 14 1012.5 - 0.8 - - - - - - -
24/02:30pm 12.7 ENE 8 12 1012.6 - 0.8 - - - - - - -
24/02:00pm 12.4 ENE 7 13 1012.9 - 0.8 - - - - - - -
24/01:30pm 11.5 ENE 8 12 1013.4 - 0.8 - - - - - - -
24/01:00pm 11.4 ENE 7 11 1013.7 - 0.8 - - - - - - -
24/12:30pm 11.0 ENE 7 10 1014.4 - 0.8 - - - - - - -
24/12:00pm 10.3 ENE 6 9 1015.0 - 0.8 Recent precip. - - - - - -
24/11:30am 10.0 ENE 4 7 1015.7 - 0.8 - - - - - - -
24/11:00am 9.8 NE 4 6 1016.2 - 0.6 - - - - - - -
24/10:30am 9.6 ENE 6 9 1016.2 - 0.4 - - - - - - -
24/10:00am 9.4 NE 5 7 1016.4 - 0.4 - - - - - - -
24/09:30am 9.3 NE 6 8 1016.4 - 0.2 - - - - - - -
24/09:00am 9.1 NE 5 7 1016.3 - 0.2 Recent precip. - - - - - -
24/08:30am 9.1 NNE 3 4 1016.1 - 0.0 - - - - - - -
24/08:00am 9.2 NE 4 7 1016.2 - 0.0 - - - - - - -
24/07:30am 8.9 NE 5 7 1016.1 - 0.0 - - - - - - -
24/07:00am 9.1 NE 5 7 1016.1 - 0.0 - - - - - - -
24/06:30am 8.6 NE 3 5 1016.2 - 0.0 - - - - - - -
24/06:00am 8.1 NE 5 7 1016.1 - 0.0 - - - - - - -
24/05:30am 7.5 NE 5 7 1016.1 - 0.0 - - - - - - -
24/05:00am 4.0 NNE 2 4 1016.3 - 0.0 - - - - - - -
24/04:30am 4.1 NNE 2 2 1016.4 - 0.0 - - - - - - -
24/04:00am 6.8 NNE 4 7 1016.4 - 0.0 - - - - - - -
24/03:30am 6.7 NE 5 7 1016.4 - 0.0 - - - - - - -
24/03:00am 4.6 N 2 4 1016.6 - 0.0 - - - - - - -
24/02:30am 6.9 NNE 4 7 1016.8 - 0.0 - - - - - - -
24/02:00am 7.0 NNE 4 8 1017.1 - 0.0 - - - - - - -
24/01:30am 6.7 NNE 5 7 1017.0 - 0.0 - - - - - - -
24/01:00am 3.4 NNW 2 3 1017.3 - 0.0 - - - - - - -
24/12:30am 5.7 NE 3 5 1017.6 - 0.0 - - - - - - -
24/12:00am 4.7 NNE 3 4 1017.8 - 0.0 - - - - - - -
 
Date/Time
EST
Temp

°C
Wind Pressure Rain
since 9am
mm
Weather Cloud Vis
km
Sea
Height
m
Swell
Dir
 
Speed
knots
Gust
knots
hPa Trend Height
m
Period
s
Dir
23/11:30pm 4.9 NNE 3 5 1018.2 - 0.0 - - - - - - -
23/11:00pm 4.5 NE 3 4 1018.6 - 0.0 - - - - - - -
23/10:30pm 4.7 NNE 2 2 1019.0 - 0.0 - - - - - - -
23/10:00pm 5.0 NE 1 4 1019.3 - 0.0 - - - - - - -
23/09:30pm 4.8 CALM 0 2 1019.5 - 0.0 - - - - - - -
23/09:00pm 5.0 CALM 0 2 1019.7 - 0.0 - - - - - - -
23/08:30pm 5.0 CALM 0 0 1019.7 - 0.0 - - - - - - -
23/08:00pm 5.6 CALM 0 0 1019.6 - 0.0 - - - - - - -
23/07:30pm 5.3 CALM 0 0 1019.6 - 0.0 - - - - - - -
23/07:00pm 6.0 CALM 0 0 1019.5 - 0.0 - - - - - - -
23/06:30pm 6.3 CALM 0 0 1019.4 - 0.0 - - - - - - -
23/06:00pm 6.9 CALM 0 0 1019.4 - 0.0 - - - - - - -
23/05:30pm 7.4 N 1 2 1019.4 - 0.0 - - - - - - -
23/05:00pm 7.9 NNE 2 3 1019.5 - 0.0 - - - - - - -
23/04:30pm 7.8 CALM 0 0 1019.4 - 0.0 - - - - - - -
23/04:00pm 8.2 NNE 3 4 1019.4 - 0.0 - - - - - - -
23/03:30pm 8.3 ENE 2 3 1019.4 - 0.0 - - - - - - -

Other Formats:

Comma delimited format used in spreadsheet applications
http://www.bom.gov.au/fwo/IDV60701/IDV60701.94857.axf

JavaScript Object Notation format (JSON) in row-major order
http://www.bom.gov.au/fwo/IDV60701/IDV60701.94857.json